createdAt,value
2022-08-27T00:02:04.630Z,67.96
2022-08-27T00:04:32.920Z,68.04
2022-08-27T00:07:01.353Z,68.44
2022-08-27T00:09:29.969Z,67.80
2022-08-27T00:11:58.284Z,67.57
2022-08-27T00:14:27.746Z,67.67
2022-08-27T00:16:56.914Z,68.03
2022-08-27T00:19:25.152Z,67.35
2022-08-27T00:21:52.645Z,67.81
2022-08-27T00:24:20.132Z,67.53
2022-08-27T00:26:47.969Z,67.47
2022-08-27T00:29:15.456Z,68.07
2022-08-27T00:31:42.989Z,68.26
2022-08-27T00:34:13.036Z,68.42
2022-08-27T00:36:41.914Z,68.78
2022-08-27T00:39:09.676Z,68.37
2022-08-27T00:41:39.430Z,68.99
2022-08-27T00:44:07.567Z,69.22
2022-08-27T00:46:54.172Z,69.02
2022-08-27T00:49:32.249Z,69.50
2022-08-27T00:52:13.036Z,70.05
2022-08-27T00:54:41.269Z,69.74
2022-08-27T00:57:08.884Z,70.04
2022-08-27T00:59:37.057Z,70.04
2022-08-27T01:02:19.967Z,69.94
2022-08-27T01:05:06.972Z,70.18
2022-08-27T01:07:41.066Z,70.01
2022-08-27T01:10:14.074Z,70.92
2022-08-27T01:12:42.483Z,70.23
2022-08-27T01:15:19.459Z,70.67
2022-08-27T01:17:48.905Z,71.75
2022-08-27T01:20:25.817Z,71.57
2022-08-27T01:23:16.660Z,72.43
2022-08-27T01:25:44.992Z,73.23
2022-08-27T01:28:14.102Z,73.05
2022-08-27T01:30:42.485Z,73.40
2022-08-27T01:33:18.165Z,73.63
2022-08-27T01:35:49.636Z,74.82
2022-08-27T01:38:30.067Z,75.08
2022-08-27T01:41:01.312Z,74.82
2022-08-27T01:43:31.381Z,75.49
2022-08-27T01:45:59.767Z,75.02
2022-08-27T01:48:27.366Z,75.40
2022-08-27T01:50:54.904Z,75.38
2022-08-27T01:53:25.252Z,74.48
2022-08-27T01:55:54.689Z,74.45
2022-08-27T01:58:29.160Z,74.48
2022-08-27T02:01:05.590Z,75.25
2022-08-27T02:03:36.996Z,74.90
2022-08-27T02:06:09.388Z,74.33
2022-08-27T02:08:37.995Z,74.30
2022-08-27T02:11:08.326Z,75.25
2022-08-27T02:13:36.632Z,74.62
2022-08-27T02:16:04.607Z,74.62
2022-08-27T02:18:32.475Z,75.03
2022-08-27T02:21:00.028Z,74.86
2022-08-27T02:23:27.491Z,75.52
2022-08-27T02:25:55.220Z,74.71
2022-08-27T02:28:22.865Z,74.92
2022-08-27T02:30:50.389Z,75.68
2022-08-27T02:33:18.156Z,75.70
2022-08-27T02:35:45.619Z,75.57
2022-08-27T02:38:14.166Z,75.28
2022-08-27T02:40:41.966Z,75.56
2022-08-27T02:43:09.626Z,76.22
2022-08-27T02:45:43.196Z,76.12
2022-08-27T02:48:11.125Z,76.29
2022-08-27T02:50:39.070Z,76.57
2022-08-27T02:53:07.393Z,77.28
2022-08-27T02:55:35.778Z,77.07
2022-08-27T02:58:04.707Z,76.85
2022-08-27T03:00:33.728Z,77.44
2022-08-27T03:03:02.514Z,77.66
2022-08-27T03:05:30.141Z,78.16
2022-08-27T03:07:59.457Z,77.90
2022-08-27T03:10:26.943Z,77.93
2022-08-27T03:12:54.404Z,78.24
2022-08-27T03:15:22.304Z,77.89
2022-08-27T03:18:09.673Z,77.93
2022-08-27T03:20:44.499Z,77.44
2022-08-27T03:23:14.683Z,78.00
2022-08-27T03:25:53.229Z,77.83
2022-08-27T03:28:27.786Z,77.29
2022-08-27T03:31:01.190Z,77.79
2022-08-27T03:33:36.587Z,77.76
2022-08-27T03:36:07.534Z,78.03
2022-08-27T03:38:36.305Z,77.60
2022-08-27T03:41:05.034Z,77.90
2022-08-27T03:43:32.991Z,78.95
2022-08-27T03:46:02.372Z,77.65
2022-08-27T03:48:32.155Z,77.96
2022-08-27T03:51:11.010Z,78.34
2022-08-27T03:53:42.051Z,77.51
2022-08-27T03:56:10.461Z,78.12
2022-08-27T03:58:39.069Z,78.30
2022-08-27T04:01:08.521Z,77.49
2022-08-27T04:03:36.897Z,77.76
2022-08-27T04:06:05.274Z,78.24
2022-08-27T04:08:33.111Z,78.02
2022-08-27T04:11:01.057Z,77.94
2022-08-27T04:13:28.537Z,78.21
2022-08-27T04:15:56.774Z,78.43
2022-08-27T04:18:24.671Z,78.65
2022-08-27T04:20:52.776Z,78.71
2022-08-27T04:23:20.712Z,78.12
2022-08-27T04:25:48.922Z,78.12
2022-08-27T04:28:17.935Z,77.97
2022-08-27T04:30:47.139Z,78.48
2022-08-27T04:33:15.369Z,78.33
2022-08-27T04:35:43.191Z,78.91
2022-08-27T04:38:10.761Z,78.90
2022-08-27T04:40:57.480Z,78.04
2022-08-27T04:43:27.591Z,77.85
2022-08-27T04:45:55.518Z,77.89
2022-08-27T04:48:23.002Z,78.30
2022-08-27T04:50:50.506Z,78.02
2022-08-27T04:53:18.419Z,77.88
2022-08-27T04:55:51.135Z,77.40
2022-08-27T04:58:20.792Z,77.24
2022-08-27T05:01:01.599Z,76.67
2022-08-27T05:03:29.555Z,76.14
2022-08-27T05:06:05.572Z,76.57
2022-08-27T05:08:34.364Z,75.53
2022-08-27T05:11:02.514Z,75.77
2022-08-27T05:13:30.494Z,75.84
2022-08-27T05:16:02.555Z,75.69
2022-08-27T05:18:33.266Z,74.57
2022-08-27T05:21:04.149Z,74.62
2022-08-27T05:23:32.545Z,74.09
2022-08-27T05:26:04.454Z,73.66
2022-08-27T05:28:32.024Z,73.31
2022-08-27T05:31:11.424Z,73.44
2022-08-27T05:33:41.062Z,73.37
2022-08-27T05:36:17.036Z,73.60
2022-08-27T05:38:44.887Z,74.43
2022-08-27T05:41:16.038Z,74.39
2022-08-27T05:43:49.135Z,73.41
2022-08-27T05:46:23.063Z,72.61
2022-08-27T05:48:52.312Z,71.73
2022-08-27T05:51:25.666Z,71.01
2022-08-27T05:54:11.064Z,70.58
2022-08-27T05:56:39.252Z,70.04
2022-08-27T05:59:25.673Z,69.67
2022-08-27T06:01:56.552Z,69.50
2022-08-27T06:04:25.872Z,69.44
2022-08-27T06:06:53.958Z,69.87
2022-08-27T06:09:25.970Z,70.19
2022-08-27T06:11:55.655Z,69.94
2022-08-27T06:14:24.089Z,69.85
2022-08-27T06:16:51.620Z,69.54
2022-08-27T06:19:19.347Z,69.25
2022-08-27T06:22:01.004Z,68.76
2022-08-27T06:24:36.325Z,68.22
2022-08-27T06:27:04.306Z,67.42
2022-08-27T06:29:31.958Z,67.11
2022-08-27T06:31:59.404Z,66.69
2022-08-27T06:34:27.217Z,65.59
2022-08-27T06:36:55.102Z,65.46
2022-08-27T06:39:22.602Z,65.94
2022-08-27T06:41:50.763Z,65.47
2022-08-27T06:44:24.335Z,65.65
2022-08-27T06:46:52.447Z,65.73
2022-08-27T06:49:20.536Z,65.28
2022-08-27T06:51:48.451Z,65.11
2022-08-27T06:54:17.350Z,64.75
2022-08-27T06:56:45.021Z,64.99
2022-08-27T06:59:17.478Z,64.17
2022-08-27T07:01:51.283Z,64.02
2022-08-27T07:04:30.741Z,64.19
2022-08-27T07:07:02.655Z,63.48
2022-08-27T07:09:34.306Z,63.00
2022-08-27T07:12:02.646Z,62.62
2022-08-27T07:14:36.961Z,62.77
2022-08-27T07:17:11.202Z,62.62
2022-08-27T07:19:44.446Z,63.03
2022-08-27T07:22:13.106Z,61.92
2022-08-27T07:24:44.006Z,62.67
2022-08-27T07:27:12.702Z,62.85
2022-08-27T07:29:40.326Z,62.14
2022-08-27T07:32:07.797Z,61.62
2022-08-27T07:34:35.577Z,61.47
2022-08-27T07:37:03.264Z,60.99
2022-08-27T07:39:30.850Z,60.34
2022-08-27T07:42:17.353Z,60.25
2022-08-27T07:44:44.972Z,60.07
2022-08-27T07:47:13.662Z,60.03
2022-08-27T07:49:41.200Z,60.41
2022-08-27T07:52:08.985Z,59.76
2022-08-27T07:54:36.733Z,59.40
2022-08-27T07:57:04.926Z,60.52
2022-08-27T07:59:32.396Z,59.92
2022-08-27T08:02:00.729Z,59.15
2022-08-27T08:04:28.232Z,59.09
2022-08-27T08:06:56.611Z,59.17
2022-08-27T08:09:25.121Z,60.04
2022-08-27T08:11:54.026Z,59.30
2022-08-27T08:14:22.242Z,59.07
2022-08-27T08:16:50.680Z,59.17
2022-08-27T08:19:18.766Z,59.38
2022-08-27T08:21:46.300Z,59.30
2022-08-27T08:24:13.989Z,59.63
2022-08-27T08:26:42.163Z,59.75
2022-08-27T08:29:13.348Z,59.15
2022-08-27T08:31:46.910Z,59.55
2022-08-27T08:34:19.873Z,59.95
2022-08-27T08:36:54.434Z,59.68
2022-08-27T08:39:24.368Z,59.84
2022-08-27T08:42:03.087Z,59.82
2022-08-27T08:44:45.732Z,58.70
2022-08-27T08:47:25.023Z,59.20
2022-08-27T08:50:05.174Z,59.55
2022-08-27T08:53:20.058Z,58.53
2022-08-27T08:55:54.673Z,58.06
2022-08-27T08:58:28.006Z,57.73
2022-08-27T09:01:02.241Z,57.08
2022-08-27T09:03:36.551Z,56.06
2022-08-27T09:06:26.225Z,56.20
2022-08-27T09:08:54.849Z,55.54
2022-08-27T09:11:34.227Z,55.15
2022-08-27T09:14:47.141Z,53.40
2022-08-27T09:17:14.894Z,53.91
2022-08-27T09:19:43.238Z,54.63
2022-08-27T09:22:32.590Z,54.21
2022-08-27T09:25:26.549Z,54.65
2022-08-27T09:27:59.725Z,52.46
2022-08-27T09:30:32.533Z,51.52
2022-08-27T09:33:04.452Z,50.73
2022-08-27T09:35:44.835Z,50.18
2022-08-27T09:38:31.879Z,50.86
2022-08-27T09:41:19.770Z,50.01
2022-08-27T09:44:08.017Z,50.30
2022-08-27T09:46:35.908Z,49.90
2022-08-27T09:49:17.539Z,49.06
2022-08-27T09:51:48.017Z,48.70
2022-08-27T09:54:42.631Z,48.65
2022-08-27T09:57:14.329Z,48.40
2022-08-27T09:59:53.902Z,48.06
2022-08-27T10:02:25.562Z,47.69
2022-08-27T10:04:58.768Z,47.77
2022-08-27T10:08:04.639Z,46.75
2022-08-27T10:10:57.663Z,47.05
2022-08-27T10:13:52.787Z,46.55
2022-08-27T10:17:10.087Z,45.21
2022-08-27T10:19:40.541Z,44.80
2022-08-27T10:22:28.778Z,43.53
2022-08-27T10:24:56.498Z,43.29
2022-08-27T10:27:41.911Z,42.24
2022-08-27T10:30:17.292Z,43.18
2022-08-27T10:33:11.556Z,41.46
2022-08-27T10:36:04.213Z,42.13
2022-08-27T10:38:46.407Z,42.49
2022-08-27T10:41:29.859Z,42.31
2022-08-27T10:44:37.717Z,41.74
2022-08-27T10:47:30.949Z,40.35
2022-08-27T10:50:03.311Z,39.45
2022-08-27T10:52:59.229Z,39.61
2022-08-27T10:55:45.981Z,40.38
2022-08-27T10:58:41.031Z,41.57
2022-08-27T11:01:25.083Z,41.08
2022-08-27T11:04:26.535Z,41.89
2022-08-27T11:07:03.664Z,40.82
2022-08-27T11:09:52.579Z,39.31
2022-08-27T11:12:38.437Z,39.16
2022-08-27T11:15:17.691Z,39.22
2022-08-27T11:18:08.503Z,37.56
2022-08-27T11:21:05.409Z,37.52
2022-08-27T11:23:53.058Z,37.64
2022-08-27T11:26:21.199Z,37.99
2022-08-27T11:28:58.706Z,36.11
2022-08-27T11:31:38.310Z,36.98
2022-08-27T11:34:26.677Z,37.92
2022-08-27T11:37:28.058Z,37.76
2022-08-27T11:40:20.630Z,36.48
2022-08-27T11:43:01.898Z,36.38
2022-08-27T11:45:40.499Z,33.24
2022-08-27T11:48:28.464Z,31.86
2022-08-27T11:51:02.543Z,33.96
2022-08-27T11:53:52.067Z,31.83
2022-08-27T11:56:36.915Z,31.67
2022-08-27T11:59:33.149Z,33.17
2022-08-27T12:02:30.121Z,35.75
2022-08-27T12:05:32.751Z,38.73
2022-08-27T12:08:14.019Z,40.46
2022-08-27T12:11:37.269Z,41.80
2022-08-27T12:14:04.657Z,41.60
2022-08-27T12:17:13.633Z,41.11
2022-08-27T12:19:59.586Z,42.34
2022-08-27T12:23:27.420Z,41.97
2022-08-27T12:25:58.715Z,43.52
2022-08-27T12:28:27.756Z,42.65
2022-08-27T12:30:56.283Z,42.39
2022-08-27T12:33:41.741Z,41.05
2022-08-27T12:36:19.953Z,39.91
2022-08-27T12:38:58.551Z,38.80
2022-08-27T12:41:44.529Z,38.38
2022-08-27T12:44:33.229Z,38.98
2022-08-27T12:47:07.684Z,38.39
2022-08-27T12:49:58.712Z,38.05
2022-08-27T12:52:53.870Z,38.11
2022-08-27T12:55:26.298Z,38.70
2022-08-27T12:58:12.259Z,39.21
2022-08-27T13:01:25.066Z,39.13
2022-08-27T13:03:54.942Z,38.84
2022-08-27T13:06:34.412Z,39.31
2022-08-27T13:09:07.279Z,38.83
2022-08-27T13:11:49.141Z,39.26
2022-08-27T13:14:20.610Z,39.35
2022-08-27T13:17:00.541Z,39.36
2022-08-27T13:19:31.264Z,39.60
2022-08-27T13:22:05.152Z,39.72
2022-08-27T13:24:37.262Z,40.24
2022-08-27T13:27:06.490Z,40.46
2022-08-27T13:29:35.068Z,45.27
2022-08-27T13:32:03.215Z,45.50
2022-08-27T13:34:38.208Z,45.41
2022-08-27T13:37:22.089Z,47.41
2022-08-27T13:39:55.544Z,47.84
2022-08-27T13:42:26.166Z,44.02
2022-08-27T13:45:01.439Z,43.65
2022-08-27T13:47:30.850Z,44.05
2022-08-27T13:50:23.897Z,48.25
2022-08-27T13:53:12.788Z,46.59
2022-08-27T13:55:47.857Z,45.59
2022-08-27T13:58:31.569Z,42.66
2022-08-27T14:01:27.576Z,39.96
2022-08-27T14:04:26.219Z,38.60
2022-08-27T14:06:54.754Z,36.66
2022-08-27T14:09:29.354Z,35.37
2022-08-27T14:12:04.823Z,34.12
2022-08-27T14:14:39.954Z,32.48
2022-08-27T14:17:29.703Z,32.07
2022-08-27T14:20:02.845Z,32.39
2022-08-27T14:22:34.306Z,31.42
2022-08-27T14:25:03.070Z,30.47
2022-08-27T14:27:32.330Z,30.64
2022-08-27T14:29:59.998Z,30.20
2022-08-27T14:32:27.761Z,27.03
2022-08-27T14:34:55.254Z,26.06
2022-08-27T14:37:22.864Z,26.69
2022-08-27T14:39:51.075Z,26.62
2022-08-27T14:42:20.045Z,26.04
2022-08-27T14:44:47.555Z,24.71
2022-08-27T14:47:18.492Z,26.04
2022-08-27T14:49:47.442Z,25.12
2022-08-27T14:52:15.808Z,24.94
2022-08-27T14:54:44.745Z,24.71
2022-08-27T14:57:13.825Z,24.61
2022-08-27T14:59:41.385Z,24.75
2022-08-27T15:02:13.908Z,25.42
2022-08-27T15:04:42.321Z,25.29
2022-08-27T15:07:15.623Z,24.66
2022-08-27T15:09:44.475Z,23.99
2022-08-27T15:12:26.024Z,24.49
2022-08-27T15:14:56.124Z,24.45
2022-08-27T15:17:34.434Z,23.34
2022-08-27T15:20:19.785Z,23.00
2022-08-27T15:22:51.229Z,22.89
2022-08-27T15:25:20.947Z,23.19
2022-08-27T15:27:49.547Z,24.76
2022-08-27T15:30:22.738Z,24.38
2022-08-27T15:32:50.599Z,23.92
2022-08-27T15:35:23.336Z,26.43
2022-08-27T15:37:50.961Z,27.22
2022-08-27T15:40:20.260Z,27.40
2022-08-27T15:42:55.858Z,27.75
2022-08-27T15:45:25.780Z,31.30
2022-08-27T15:47:57.288Z,26.18
2022-08-27T15:50:26.768Z,26.44
2022-08-27T15:53:01.386Z,24.29
2022-08-27T15:55:35.005Z,25.11
2022-08-27T15:58:03.363Z,28.09
2022-08-27T16:00:33.836Z,27.81
2022-08-27T16:03:05.389Z,30.93
2022-08-27T16:05:37.587Z,31.16
2022-08-27T16:08:06.216Z,32.65
2022-08-27T16:10:35.310Z,34.76
2022-08-27T16:13:03.502Z,31.20
2022-08-27T16:15:34.181Z,33.67
2022-08-27T16:18:04.503Z,33.82
2022-08-27T16:20:32.262Z,33.83
2022-08-27T16:23:00.644Z,34.73
2022-08-27T16:25:28.637Z,32.74
2022-08-27T16:27:58.007Z,32.96
2022-08-27T16:30:26.922Z,31.14
2022-08-27T16:32:55.902Z,32.58
2022-08-27T16:35:25.046Z,33.52
2022-08-27T16:37:52.605Z,33.69
2022-08-27T16:40:21.030Z,34.42
2022-08-27T16:42:51.306Z,35.48
2022-08-27T16:45:26.272Z,36.49
2022-08-27T16:48:13.379Z,38.47
2022-08-27T16:50:41.596Z,39.85
2022-08-27T16:53:15.859Z,41.61
2022-08-27T16:55:45.692Z,41.88
2022-08-27T16:58:26.876Z,43.60
2022-08-27T17:01:07.297Z,44.36
2022-08-27T17:04:16.352Z,44.95
2022-08-27T17:06:44.778Z,45.59
2022-08-27T17:09:13.984Z,46.88
2022-08-27T17:11:43.439Z,47.91
2022-08-27T17:14:12.281Z,48.66
2022-08-27T17:16:41.697Z,48.83
2022-08-27T17:19:14.198Z,50.03
2022-08-27T17:21:45.822Z,49.77
2022-08-27T17:24:13.736Z,50.16
2022-08-27T17:26:41.431Z,50.07
2022-08-27T17:29:09.211Z,51.04
2022-08-27T17:31:40.718Z,48.42
2022-08-27T17:34:17.930Z,44.48
2022-08-27T17:36:46.282Z,41.20
2022-08-27T17:39:14.854Z,39.01
2022-08-27T17:41:48.911Z,39.15
2022-08-27T17:44:35.105Z,38.66
2022-08-27T17:47:07.566Z,38.25
2022-08-27T17:49:36.224Z,38.70
2022-08-27T17:52:15.273Z,38.04
2022-08-27T17:54:47.775Z,37.63
2022-08-27T17:57:25.472Z,37.73
2022-08-27T17:59:55.613Z,38.44
2022-08-27T18:02:35.055Z,41.36
2022-08-27T18:05:04.638Z,41.84
2022-08-27T18:07:36.660Z,39.62
2022-08-27T18:10:09.563Z,39.30
2022-08-27T18:12:37.629Z,39.47
2022-08-27T18:15:19.076Z,39.12
2022-08-27T18:17:53.432Z,38.54
2022-08-27T18:20:27.557Z,38.62
2022-08-27T18:22:55.846Z,38.76
2022-08-27T18:25:27.142Z,39.49
2022-08-27T18:28:02.914Z,39.01
2022-08-27T18:30:31.617Z,40.06
2022-08-27T18:33:00.075Z,40.22
2022-08-27T18:35:32.081Z,40.25
2022-08-27T18:38:00.314Z,40.46
2022-08-27T18:40:34.787Z,40.73
2022-08-27T18:43:05.402Z,40.01
2022-08-27T18:45:36.025Z,40.58
2022-08-27T18:48:13.061Z,40.04
2022-08-27T18:50:48.559Z,39.87
2022-08-27T18:53:20.844Z,39.90
2022-08-27T18:55:51.497Z,39.72
2022-08-27T18:58:20.027Z,39.36
2022-08-27T19:00:53.449Z,39.60
2022-08-27T19:03:31.312Z,40.12
2022-08-27T19:06:00.526Z,40.28
2022-08-27T19:08:28.938Z,40.18
2022-08-27T19:10:56.668Z,40.40
2022-08-27T19:13:24.187Z,40.50
2022-08-27T19:16:06.420Z,40.41
2022-08-27T19:18:37.818Z,40.47
2022-08-27T19:21:07.417Z,40.59
2022-08-27T19:23:36.187Z,40.52
2022-08-27T19:26:04.383Z,40.35
2022-08-27T19:28:42.043Z,40.61
2022-08-27T19:31:09.532Z,40.60
2022-08-27T19:33:38.121Z,40.76
2022-08-27T19:36:11.469Z,44.35
2022-08-27T19:38:43.693Z,45.76
2022-08-27T19:41:11.804Z,46.32
2022-08-27T19:43:39.286Z,46.82
2022-08-27T19:46:16.055Z,47.51
2022-08-27T19:48:43.777Z,48.17
2022-08-27T19:51:11.659Z,48.50
2022-08-27T19:53:39.880Z,49.32
2022-08-27T19:56:15.428Z,49.86
2022-08-27T19:58:45.176Z,51.39
2022-08-27T20:01:13.008Z,50.49
2022-08-27T20:03:41.354Z,51.03
2022-08-27T20:06:09.401Z,51.70
2022-08-27T20:08:36.892Z,52.27
2022-08-27T20:11:04.465Z,52.56
2022-08-27T20:13:34.651Z,52.67
2022-08-27T20:16:03.514Z,52.07
2022-08-27T20:18:32.443Z,52.23
2022-08-27T20:21:00.168Z,52.68
2022-08-27T20:23:33.820Z,52.40
2022-08-27T20:26:01.700Z,52.99
2022-08-27T20:28:44.581Z,53.08
2022-08-27T20:31:12.606Z,53.06
2022-08-27T20:33:40.194Z,53.30
2022-08-27T20:36:08.654Z,53.55
2022-08-27T20:38:36.583Z,53.66
2022-08-27T20:41:05.510Z,53.62
2022-08-27T20:43:33.312Z,53.42
2022-08-27T20:46:02.580Z,53.17
2022-08-27T20:48:30.195Z,53.54
2022-08-27T20:50:57.720Z,53.66
2022-08-27T20:53:26.053Z,53.86
2022-08-27T20:55:56.697Z,53.45
2022-08-27T20:58:44.205Z,54.06
2022-08-27T21:01:13.146Z,54.16
2022-08-27T21:03:40.782Z,53.64
2022-08-27T21:06:09.184Z,53.93
2022-08-27T21:08:39.854Z,54.13
2022-08-27T21:11:13.869Z,54.32
2022-08-27T21:13:55.625Z,54.30
2022-08-27T21:16:25.448Z,54.27
2022-08-27T21:18:53.923Z,54.16
2022-08-27T21:21:22.975Z,54.28
2022-08-27T21:23:50.322Z,54.16
2022-08-27T21:26:19.647Z,54.22
2022-08-27T21:28:47.129Z,54.26
2022-08-27T21:31:14.599Z,54.28
2022-08-27T21:33:42.391Z,54.16
2022-08-27T21:36:12.168Z,54.02
2022-08-27T21:38:40.756Z,54.11
2022-08-27T21:41:08.957Z,54.19
2022-08-27T21:43:36.751Z,54.15
2022-08-27T21:46:04.845Z,53.56
2022-08-27T21:48:32.818Z,53.56
2022-08-27T21:51:11.725Z,53.42
2022-08-27T21:53:40.355Z,54.19
2022-08-27T21:56:11.058Z,53.58
2022-08-27T21:58:38.821Z,53.67
2022-08-27T22:01:07.155Z,53.42
2022-08-27T22:03:36.163Z,53.32
2022-08-27T22:06:06.732Z,52.50
2022-08-27T22:08:35.129Z,51.99
2022-08-27T22:11:03.123Z,51.76
2022-08-27T22:13:31.161Z,51.19
2022-08-27T22:15:59.023Z,50.92
2022-08-27T22:18:26.804Z,52.01
2022-08-27T22:20:58.775Z,52.15
2022-08-27T22:23:27.754Z,51.94
2022-08-27T22:25:55.447Z,51.83
2022-08-27T22:28:23.492Z,51.59
2022-08-27T22:30:51.260Z,51.80
2022-08-27T22:33:18.999Z,52.21
2022-08-27T22:35:46.839Z,51.72
2022-08-27T22:38:14.894Z,50.44
2022-08-27T22:40:42.609Z,50.92
2022-08-27T22:43:10.219Z,50.73
2022-08-27T22:45:37.985Z,51.08
2022-08-27T22:48:05.686Z,52.39
2022-08-27T22:50:33.257Z,52.61
2022-08-27T22:53:01.344Z,52.74
2022-08-27T22:55:29.335Z,53.18
2022-08-27T22:57:56.880Z,54.03
2022-08-27T23:00:32.812Z,54.56
2022-08-27T23:03:01.909Z,53.71
2022-08-27T23:05:41.921Z,54.52
2022-08-27T23:08:12.122Z,57.25
2022-08-27T23:10:41.754Z,57.09
2022-08-27T23:13:11.828Z,57.48
2022-08-27T23:15:39.837Z,58.32
2022-08-27T23:18:07.628Z,59.03
2022-08-27T23:20:35.705Z,58.82
2022-08-27T23:23:03.665Z,59.02
2022-08-27T23:25:50.125Z,59.83
2022-08-27T23:28:17.992Z,60.56
2022-08-27T23:30:46.274Z,61.83
2022-08-27T23:33:14.485Z,61.25
2022-08-27T23:35:47.645Z,61.11
2022-08-27T23:38:18.244Z,60.38
2022-08-27T23:40:47.370Z,59.75
2022-08-27T23:43:15.373Z,61.25
2022-08-27T23:45:43.635Z,60.26
2022-08-27T23:48:11.868Z,61.31
2022-08-27T23:50:40.827Z,60.57
2022-08-27T23:53:08.735Z,60.42
2022-08-27T23:55:40.155Z,60.72
2022-08-27T23:58:08.987Z,62.12
